Time;durP1;ratioP1;P1;durP2;ratioP2;P2;SDS_P1;SDS_P2;PMS_P1;PMS_P2;Temp;Humidity;BMP_temperature;BMP_pressure;BME280_temperature;BME280_humidity;BME280_pressure;Samples;Min_cycle;Max_cycle;Signal;HPM_P1;HPM_P2
2023/09/29 00:02:31;;;;;;;0.10;0.10;;;;;;;17.16;100.00;99269.22;5092625;28;20191;-55
2023/09/29 00:05:18;;;;;;;0.10;0.10;;;;;;;17.05;100.00;99272.00;5091629;28;20191;-55
2023/09/29 00:08:06;;;;;;;0.10;0.10;;;;;;;17.08;100.00;99277.97;5092573;28;20199;-55
2023/09/29 00:10:53;;;;;;;0.10;0.10;;;;;;;17.20;100.00;99289.41;5092570;28;20281;-55
2023/09/29 00:13:41;;;;;;;0.10;0.10;;;;;;;17.05;100.00;99293.44;5092735;28;20249;-55
2023/09/29 00:16:28;;;;;;;0.20;0.20;;;;;;;16.90;100.00;99302.81;5092354;28;20214;-55
2023/09/29 00:19:16;;;;;;;0.10;0.10;;;;;;;16.98;100.00;99302.97;5094411;28;20242;-55
2023/09/29 00:22:04;;;;;;;0.20;0.20;;;;;;;16.90;100.00;99292.97;5096493;28;20263;-55
2023/09/29 00:24:51;;;;;;;0.10;0.10;;;;;;;16.83;100.00;99287.31;5096445;28;20187;-55
2023/09/29 00:27:39;;;;;;;0.13;0.13;;;;;;;16.90;100.00;99287.63;5096428;28;20552;-55
2023/09/29 00:30:26;;;;;;;0.10;0.10;;;;;;;16.78;100.00;99284.16;5080993;28;20203;-55
2023/09/29 00:33:13;;;;;;;0.20;0.20;;;;;;;16.72;100.00;99282.03;5096345;28;20333;-55
2023/09/29 00:36:01;;;;;;;0.20;0.20;;;;;;;16.85;100.00;99285.31;5094734;28;20218;-55
2023/09/29 00:38:48;;;;;;;0.10;0.10;;;;;;;16.93;100.00;99275.78;5080735;28;20274;-55
2023/09/29 00:41:37;;;;;;;0.10;0.10;;;;;;;16.82;100.00;99269.56;5096093;28;20198;-55
2023/09/29 00:44:24;;;;;;;0.10;0.10;;;;;;;16.96;100.00;99262.97;5080500;28;20214;-55
2023/09/29 00:47:11;;;;;;;0.10;0.10;;;;;;;16.95;100.00;99263.97;5095989;28;20273;-55
2023/09/29 00:49:58;;;;;;;0.20;0.20;;;;;;;16.96;100.00;99262.13;5094663;28;20191;-55
2023/09/29 00:52:50;;;;;;;0.20;0.20;;;;;;;16.92;100.00;99266.06;5095887;28;20321;-55
2023/09/29 00:55:37;;;;;;;0.00;0.00;;;;;;;16.94;100.00;99259.59;5095690;28;20319;-55
2023/09/29 00:58:25;;;;;;;0.10;0.10;;;;;;;16.85;100.00;99263.06;5095862;28;20195;-55
2023/09/29 01:01:13;;;;;;;0.10;0.10;;;;;;;16.84;100.00;99264.06;5095760;28;20310;-55
2023/09/29 01:03:59;;;;;;;0.10;0.10;;;;;;;16.79;100.00;99255.59;5095734;28;20253;-55
2023/09/29 01:06:47;;;;;;;0.13;0.13;;;;;;;16.83;100.00;99260.53;5078964;28;20204;-55
2023/09/29 01:09:35;;;;;;;0.10;0.10;;;;;;;16.89;100.00;99261.84;5080264;28;20199;-55
2023/09/29 01:12:27;;;;;;;0.10;0.10;;;;;;;16.90;100.00;99255.50;5095499;28;20199;-55
2023/09/29 01:15:14;;;;;;;0.10;0.10;;;;;;;16.83;100.00;99252.50;5095270;28;20701;-55
2023/09/29 01:18:02;;;;;;;0.10;0.10;;;;;;;16.82;100.00;99250.81;5095380;28;20191;-55
2023/09/29 01:20:49;;;;;;;0.10;0.10;;;;;;;16.74;100.00;99255.16;5093860;28;20183;-55
2023/09/29 01:23:37;;;;;;;0.10;0.10;;;;;;;16.59;100.00;99254.63;5095228;28;20195;-55
2023/09/29 01:26:24;;;;;;;0.10;0.10;;;;;;;16.55;100.00;99250.53;5095357;28;20187;-55
2023/09/29 01:29:12;;;;;;;0.10;0.10;;;;;;;16.42;100.00;99249.91;5095136;28;20321;-56
2023/09/29 01:31:59;;;;;;;0.10;0.10;;;;;;;16.47;100.00;99253.03;5094454;28;20195;-56
2023/09/29 01:34:46;;;;;;;0.20;0.20;;;;;;;16.47;100.00;99251.19;5093775;28;20724;-55
2023/09/29 01:37:34;;;;;;;0.10;0.10;;;;;;;16.54;100.00;99247.00;5079546;28;20226;-55
2023/09/29 01:40:22;;;;;;;0.10;0.10;;;;;;;16.60;100.00;99251.84;5094827;28;20190;-55
2023/09/29 01:43:10;;;;;;;0.10;0.10;;;;;;;16.69;100.00;99252.88;5095162;28;20202;-55
2023/09/29 01:45:57;;;;;;;0.10;0.10;;;;;;;16.60;100.00;99248.31;5095082;28;20194;-56
2023/09/29 01:48:44;;;;;;;0.10;0.10;;;;;;;16.65;100.00;99246.06;5094771;28;20224;-55
2023/09/29 01:51:32;;;;;;;0.10;0.10;;;;;;;16.62;100.00;99254.38;5093460;28;20194;-55
2023/09/29 01:54:18;;;;;;;0.10;0.10;;;;;;;16.70;100.00;99257.25;5094687;28;20203;-55
2023/09/29 01:57:08;;;;;;;0.10;0.10;;;;;;;16.68;100.00;99243.16;5094199;28;20549;-55
2023/09/29 01:59:55;;;;;;;0.20;0.20;;;;;;;16.70;100.00;99254.59;5079385;28;20203;-55
2023/09/29 02:02:44;;;;;;;0.20;0.20;;;;;;;16.68;100.00;99248.50;5079255;28;20719;-55
2023/09/29 02:05:31;;;;;;;0.10;0.10;;;;;;;16.75;100.00;99247.00;5092888;28;20225;-55
2023/09/29 02:08:19;;;;;;;0.10;0.10;;;;;;;16.87;100.00;99247.72;5094619;28;20257;-55
2023/09/29 02:11:07;;;;;;;0.20;0.20;;;;;;;17.04;100.00;99256.94;5094438;28;20241;-56
2023/09/29 02:13:56;;;;;;;0.20;0.20;;;;;;;17.13;100.00;99256.97;5094087;28;20207;-56
2023/09/29 02:16:43;;;;;;;0.20;0.20;;;;;;;17.34;100.00;99254.19;5078740;28;20318;-55
2023/09/29 02:19:34;;;;;;;0.20;0.20;;;;;;;17.27;100.00;99254.88;5077820;28;20209;-55
2023/09/29 02:22:21;;;;;;;0.10;0.10;;;;;;;17.08;100.00;99261.91;5093935;28;20257;-55
2023/09/29 02:25:10;;;;;;;0.10;0.10;;;;;;;17.04;100.00;99263.13;5078898;28;20684;-55
2023/09/29 02:27:58;;;;;;;0.10;0.10;;;;;;;17.14;100.00;99263.16;5094017;28;20191;-55
2023/09/29 02:30:47;;;;;;;0.10;0.10;;;;;;;17.19;100.00;99258.25;5094101;28;20318;-55
2023/09/29 02:33:34;;;;;;;0.10;0.10;;;;;;;17.27;100.00;99261.06;5093848;28;20190;-55
2023/09/29 02:36:21;;;;;;;0.10;0.10;;;;;;;17.21;100.00;99252.75;5092198;28;20301;-55
2023/09/29 02:39:08;;;;;;;0.10;0.10;;;;;;;17.06;100.00;99263.00;5093873;28;20286;-55
2023/09/29 02:41:55;;;;;;;0.10;0.10;;;;;;;16.94;100.00;99262.28;5093544;28;20689;-55
2023/09/29 02:44:43;;;;;;;0.20;0.20;;;;;;;16.79;100.00;99260.94;5093729;28;20195;-55
2023/09/29 02:47:31;;;;;;;0.17;0.17;;;;;;;16.90;100.00;99263.53;5093787;28;20269;-55
2023/09/29 02:50:18;;;;;;;0.20;0.20;;;;;;;16.98;100.00;99258.31;5092239;28;20206;-55
2023/09/29 02:53:07;;;;;;;0.20;0.20;;;;;;;17.09;100.00;99268.09;5093613;28;20191;-55
2023/09/29 02:55:56;;;;;;;0.20;0.20;;;;;;;17.10;100.00;99275.16;5093415;28;20283;-55
2023/09/29 02:58:43;;;;;;;0.20;0.20;;;;;;;17.06;100.00;99273.69;5093358;28;20186;-55
2023/09/29 03:01:31;;;;;;;0.10;0.10;;;;;;;17.02;100.00;99277.66;5093482;28;20537;-58
2023/09/29 03:04:19;;;;;;;0.10;0.10;;;;;;;17.13;100.00;99261.47;5093437;28;20582;-58
2023/09/29 03:07:09;;;;;;;0.20;0.20;;;;;;;17.29;100.00;99261.81;5093333;28;20199;-58
2023/09/29 03:09:56;;;;;;;0.20;0.20;;;;;;;17.44;100.00;99264.91;5078071;28;20364;-58
2023/09/29 03:12:44;;;;;;;0.10;0.10;;;;;;;17.49;100.00;99257.31;5093625;28;20288;-58
2023/09/29 03:15:31;;;;;;;0.10;0.10;;;;;;;17.52;100.00;99250.81;5093223;28;20238;-58
2023/09/29 03:18:18;;;;;;;0.10;0.10;;;;;;;17.59;100.00;99252.81;5093240;28;20195;-58
2023/09/29 03:21:07;;;;;;;0.10;0.10;;;;;;;17.63;100.00;99248.00;5076624;28;20195;-58
2023/09/29 03:23:55;;;;;;;0.10;0.10;;;;;;;17.55;100.00;99251.38;5093299;28;20190;-58
2023/09/29 03:26:44;;;;;;;0.20;0.20;;;;;;;17.49;100.00;99253.78;5077707;28;20191;-58
2023/09/29 03:29:31;;;;;;;0.10;0.10;;;;;;;17.49;100.00;99256.47;5093138;28;20638;-58
2023/09/29 03:32:18;;;;;;;0.10;0.10;;;;;;;17.37;100.00;99253.94;5093145;28;20190;-58
2023/09/29 03:35:06;;;;;;;0.20;0.20;;;;;;;17.35;100.00;99260.38;5091642;28;20198;-58
2023/09/29 03:37:55;;;;;;;0.10;0.10;;;;;;;17.35;100.00;99261.22;5092795;28;20416;-58
2023/09/29 03:40:44;;;;;;;0.10;0.10;;;;;;;17.29;100.00;99261.81;5092952;28;20266;-58
2023/09/29 03:43:31;;;;;;;0.10;0.10;;;;;;;17.41;100.00;99254.50;5092702;28;20186;-58
2023/09/29 03:46:19;;;;;;;0.10;0.10;;;;;;;17.47;100.00;99256.63;5092880;28;20285;-58
2023/09/29 03:49:06;;;;;;;0.10;0.10;;;;;;;17.49;100.00;99264.50;5093003;28;20290;-58
2023/09/29 03:51:53;;;;;;;0.10;0.10;;;;;;;17.53;100.00;99260.56;5092581;28;20186;-58
2023/09/29 03:54:41;;;;;;;0.10;0.10;;;;;;;17.47;100.00;99267.34;5095537;28;20191;-58
2023/09/29 03:57:28;;;;;;;0.10;0.10;;;;;;;17.51;100.00;99270.56;5096937;28;20214;-58
2023/09/29 04:00:18;;;;;;;0.10;0.10;;;;;;;17.48;100.00;99260.13;5096837;28;20198;-58
2023/09/29 04:03:06;;;;;;;0.20;0.20;;;;;;;17.58;100.00;99261.00;5096964;28;20305;-58
2023/09/29 04:05:53;;;;;;;0.10;0.10;;;;;;;17.52;100.00;99265.06;5095407;28;20281;-58
2023/09/29 04:08:40;;;;;;;0.10;0.10;;;;;;;17.42;100.00;99261.53;5096549;28;20191;-58
2023/09/29 04:11:29;;;;;;;0.20;0.20;;;;;;;17.54;100.00;99259.56;5096977;28;20210;-58
2023/09/29 04:14:15;;;;;;;0.10;0.10;;;;;;;17.50;100.00;99256.31;5096819;28;20673;-57
2023/09/29 04:17:19;;;;;;;0.10;0.10;;;;;;;17.46;100.00;99258.41;5096373;28;20216;-58
2023/09/29 04:20:07;;;;;;;0.10;0.10;;;;;;;17.42;100.00;99261.53;5095241;28;20191;-58
2023/09/29 04:22:54;;;;;;;0.10;0.10;;;;;;;17.41;100.00;99273.22;5096505;28;20199;-58
2023/09/29 04:25:41;;;;;;;0.10;0.10;;;;;;;17.41;100.00;99267.88;5096075;28;20268;-58
2023/09/29 04:28:29;;;;;;;0.20;0.20;;;;;;;17.37;100.00;99264.63;5096459;28;20199;-58
2023/09/29 04:31:18;;;;;;;0.10;0.10;;;;;;;17.48;100.00;99265.50;5096376;28;20233;-58
2023/09/29 04:34:05;;;;;;;0.10;0.10;;;;;;;17.55;100.00;99264.78;5089003;28;20214;-57
2023/09/29 04:36:53;;;;;;;0.10;0.10;;;;;;;17.49;100.00;99262.69;5081094;28;20230;-58
2023/09/29 04:39:40;;;;;;;0.10;0.10;;;;;;;17.55;100.00;99256.75;5096089;28;20675;-58
2023/09/29 04:42:27;;;;;;;0.10;0.10;;;;;;;17.48;100.00;99257.47;5096098;28;20677;-57
2023/09/29 04:45:15;;;;;;;0.10;0.10;;;;;;;17.53;100.00;99258.72;5096171;28;20266;-58
2023/09/29 04:48:03;;;;;;;0.10;0.10;;;;;;;17.55;100.00;99255.91;5095906;28;20191;-58
2023/09/29 04:50:50;;;;;;;0.20;0.20;;;;;;;17.53;100.00;99250.69;5094621;28;20266;-58
2023/09/29 04:53:37;;;;;;;0.10;0.10;;;;;;;17.59;100.00;99238.56;5095817;28;20187;-58
2023/09/29 04:56:23;;;;;;;0.10;0.10;;;;;;;17.63;100.00;99234.63;5095613;28;20612;-58
2023/09/29 04:59:10;;;;;;;0.10;0.10;;;;;;;17.57;100.00;99235.19;5096003;28;20703;-58
2023/09/29 05:01:59;;;;;;;0.10;0.10;;;;;;;17.66;100.00;99231.66;5095738;28;20668;-58
2023/09/29 05:04:46;;;;;;;0.13;0.13;;;;;;;17.68;100.00;99232.38;5093961;28;20569;-58
2023/09/29 05:07:34;;;;;;;0.10;0.10;;;;;;;17.66;100.00;99239.69;5095580;28;20187;-58
2023/09/29 05:10:21;;;;;;;0.10;0.10;;;;;;;17.59;100.00;99250.13;5095652;28;20661;-58
2023/09/29 05:13:08;;;;;;;0.10;0.10;;;;;;;17.59;100.00;99247.47;5095370;28;20268;-58
2023/09/29 05:15:55;;;;;;;0.20;0.20;;;;;;;17.57;100.00;99237.88;5095483;28;20194;-58
2023/09/29 05:18:44;;;;;;;0.10;0.10;;;;;;;17.61;100.00;99241.94;5095048;28;20241;-58
2023/09/29 05:21:32;;;;;;;0.10;0.10;;;;;;;17.58;100.00;99236.88;5093943;28;20187;-57
2023/09/29 05:24:19;;;;;;;0.10;0.10;;;;;;;17.54;100.00;99233.63;5095489;28;20669;-58
2023/09/29 05:27:06;;;;;;;0.10;0.10;;;;;;;17.57;100.00;99228.00;5095300;28;20194;-58
2023/09/29 05:29:55;;;;;;;0.10;0.10;;;;;;;17.56;100.00;99238.84;5094955;28;20198;-58
2023/09/29 05:32:42;;;;;;;0.10;0.10;;;;;;;17.67;100.00;99239.56;5095083;28;20665;-58
2023/09/29 05:35:30;;;;;;;0.10;0.10;;;;;;;17.69;100.00;99247.47;5093701;28;20313;-58
2023/09/29 05:38:17;;;;;;;0.10;0.10;;;;;;;17.69;100.00;99250.13;5094570;28;20231;-58
2023/09/29 05:41:04;;;;;;;0.10;0.10;;;;;;;17.67;100.00;99254.78;5094995;28;20198;-58
2023/09/29 05:43:51;;;;;;;0.10;0.10;;;;;;;17.64;100.00;99263.09;5094856;28;20187;-58
2023/09/29 05:46:38;;;;;;;0.10;0.10;;;;;;;17.68;100.00;99251.13;5094770;28;20191;-58
2023/09/29 05:49:25;;;;;;;0.20;0.20;;;;;;;17.71;100.00;99250.88;5093394;28;20334;-58
2023/09/29 05:52:14;;;;;;;0.10;0.10;;;;;;;17.74;100.00;99254.09;5094579;28;20217;-58
2023/09/29 05:55:01;;;;;;;0.10;0.10;;;;;;;17.71;100.00;99250.88;5094592;28;20199;-58
2023/09/29 05:57:48;;;;;;;0.10;0.10;;;;;;;17.66;100.00;99251.28;5094545;28;20351;-58
2023/09/29 06:00:36;;;;;;;0.10;0.10;;;;;;;17.78;100.00;99246.63;5094777;28;20187;-58
2023/09/29 06:03:23;;;;;;;0.10;0.10;;;;;;;17.83;100.00;99247.03;5094378;28;20556;-58
2023/09/29 06:06:10;;;;;;;0.10;0.10;;;;;;;17.77;100.00;99244.94;5093309;28;20187;-58
2023/09/29 06:08:59;;;;;;;0.10;0.10;;;;;;;17.83;100.00;99243.53;5094339;28;20195;-58
2023/09/29 06:11:45;;;;;;;0.10;0.10;;;;;;;17.81;100.00;99246.34;5094364;28;20218;-58
2023/09/29 06:14:34;;;;;;;0.20;0.20;;;;;;;17.90;100.00;99229.41;5094475;28;20546;-58
2023/09/29 06:17:22;;;;;;;0.10;0.10;;;;;;;17.92;100.00;99230.13;5093477;28;20222;-58
2023/09/29 06:20:10;;;;;;;0.10;0.10;;;;;;;17.95;100.00;99212.88;5092582;28;20271;-58
2023/09/29 06:22:57;;;;;;;0.10;0.10;;;;;;;17.82;100.00;99221.25;5094259;28;20257;-58
2023/09/29 06:25:45;;;;;;;0.10;0.10;;;;;;;17.84;100.00;99221.94;5094157;28;20594;-58
2023/09/29 06:28:31;;;;;;;0.10;0.10;;;;;;;17.84;100.00;99240.69;5094130;28;20202;-58
2023/09/29 06:31:19;;;;;;;0.10;0.10;;;;;;;17.84;100.00;99246.06;5094085;28;20191;-58
2023/09/29 06:34:06;;;;;;;0.10;0.10;;;;;;;17.92;100.00;99251.56;5094034;28;20199;-58
2023/09/29 06:36:53;;;;;;;0.10;0.10;;;;;;;18.06;100.00;99250.28;5093667;28;20227;-58
2023/09/29 06:39:40;;;;;;;0.10;0.10;;;;;;;18.11;100.00;99256.03;5093612;28;20218;-58
2023/09/29 06:42:28;;;;;;;0.10;0.10;;;;;;;18.02;100.00;99260.44;5093952;28;20277;-58
2023/09/29 06:45:15;;;;;;;0.10;0.10;;;;;;;17.96;100.00;99252.13;5093782;28;20334;-56
2023/09/29 06:48:02;;;;;;;0.10;0.10;;;;;;;18.02;100.00;99247.03;5093713;28;20267;-56
2023/09/29 06:50:49;;;;;;;0.10;0.10;;;;;;;18.02;100.00;99248.88;5092472;28;20214;-56
2023/09/29 06:53:36;;;;;;;0.10;0.10;;;;;;;17.98;100.00;99248.31;5093568;28;20687;-56
2023/09/29 06:56:23;;;;;;;0.10;0.10;;;;;;;18.08;100.00;99244.78;5093637;28;20207;-56
2023/09/29 06:59:12;;;;;;;0.10;0.10;;;;;;;18.31;100.00;99233.56;5093327;28;20215;-56
2023/09/29 07:01:59;;;;;;;0.10;0.10;;;;;;;18.33;100.00;99233.41;5078056;28;20194;-56
2023/09/29 07:04:47;;;;;;;0.10;0.10;;;;;;;18.53;100.00;99231.53;5092146;28;20199;-56
2023/09/29 07:07:34;;;;;;;0.10;0.10;;;;;;;18.48;100.00;99236.47;5093466;28;20230;-56
2023/09/29 07:10:21;;;;;;;0.10;0.10;;;;;;;18.74;100.00;99224.13;5093382;28;20190;-56
2023/09/29 07:13:08;;;;;;;0.10;0.10;;;;;;;18.80;100.00;99215.47;5093259;28;20191;-56
2023/09/29 07:15:56;;;;;;;0.10;0.10;;;;;;;18.90;100.00;99210.03;5093321;28;20210;-56
2023/09/29 07:18:44;;;;;;;0.13;0.13;;;;;;;18.77;100.00;99202.34;5093095;28;20273;-56
2023/09/29 07:21:30;;;;;;;0.10;0.10;;;;;;;18.89;100.00;99194.94;5091934;28;20193;-56
2023/09/29 07:24:17;;;;;;;0.10;0.10;;;;;;;18.84;100.00;99198.09;5093223;28;20195;-56
2023/09/29 07:27:05;;;;;;;0.10;0.10;;;;;;;18.80;100.00;99196.69;5092992;28;20298;-56
2023/09/29 07:29:51;;;;;;;0.10;0.10;;;;;;;18.80;100.00;99195.84;5077225;28;20278;-56
2023/09/29 07:32:41;;;;;;;0.10;0.10;;;;;;;19.04;100.00;99195.28;5093083;28;20549;-56
2023/09/29 07:35:28;;;;;;;0.10;0.10;;;;;;;19.20;100.00;99183.84;5091680;28;20290;-56
2023/09/29 07:38:17;;;;;;;0.10;0.10;;;;;;;19.05;100.00;99181.72;5092554;28;20222;-56
2023/09/29 07:41:05;;;;;;;0.10;0.10;;;;;;;19.33;100.00;99181.66;5093052;28;20191;-56
2023/09/29 07:43:52;;;;;;;0.10;0.10;;;;;;;19.15;100.00;99189.69;5092654;28;20194;-56
2023/09/29 07:46:39;;;;;;;0.10;0.10;;;;;;;19.15;100.00;99185.16;5092948;28;20190;-56
2023/09/29 07:49:27;;;;;;;0.10;0.10;;;;;;;18.94;100.00;99192.66;5091666;28;20253;-56
2023/09/29 07:52:14;;;;;;;0.10;0.10;;;;;;;19.16;100.00;99194.06;5092826;28;20198;-56
2023/09/29 07:55:01;;;;;;;0.10;0.10;;;;;;;19.07;100.00;99200.34;5092867;28;20199;-56
2023/09/29 07:57:48;;;;;;;0.10;0.10;;;;;;;19.07;100.00;99197.66;5092812;28;20202;-56
2023/09/29 08:00:35;;;;;;;0.20;0.20;;;;;;;19.23;100.00;99202.38;5092863;28;20191;-56
2023/09/29 08:03:23;;;;;;;0.20;0.20;;;;;;;19.44;100.00;99201.06;5092596;28;20191;-56
2023/09/29 08:06:11;;;;;;;0.10;0.10;;;;;;;19.37;100.00;99191.06;5091254;28;20191;-56
2023/09/29 08:08:58;;;;;;;0.10;0.10;;;;;;;19.00;100.00;99199.25;5092550;28;20183;-56
2023/09/29 08:11:45;;;;;;;0.10;0.10;;;;;;;18.81;100.00;99195.69;5092764;28;20190;-55
2023/09/29 08:14:32;;;;;;;0.10;0.10;;;;;;;18.69;100.00;99210.28;5092279;28;20202;-56
2023/09/29 08:17:19;;;;;;;0.10;0.10;;;;;;;18.86;100.00;99197.94;5092300;28;20234;-56
2023/09/29 08:20:07;;;;;;;0.10;0.10;;;;;;;19.16;100.00;99213.72;5090800;28;20218;-56
2023/09/29 08:22:56;;;;;;;0.10;0.10;;;;;;;19.63;100.00;99221.59;5092499;28;20319;-56
2023/09/29 08:25:43;;;;;;;0.10;0.10;;;;;;;20.00;100.00;99239.38;5092455;28;20195;-56
2023/09/29 08:28:30;;;;;;;0.10;0.10;;;;;;;20.58;100.00;99233.41;5092480;28;20356;-56
2023/09/29 08:31:17;;;;;;;0.10;0.10;;;;;;;20.78;100.00;99226.78;5092372;28;20190;-55
2023/09/29 08:34:05;;;;;;;0.10;0.10;;;;;;;20.92;100.00;99225.31;5092659;28;20187;-56
2023/09/29 08:36:52;;;;;;;0.10;0.10;;;;;;;20.99;100.00;99212.03;5092341;28;20222;-56
2023/09/29 08:39:40;;;;;;;0.10;0.10;;;;;;;20.82;100.00;99216.50;5093031;28;20688;-56
2023/09/29 08:42:36;;;;;;;0.10;0.10;;;;;;;20.63;100.00;99212.22;5096266;28;20194;-56
2023/09/29 08:45:25;;;;;;;0.10;0.10;;;;;;;20.86;100.00;99213.34;5096150;28;20191;-56
2023/09/29 08:48:13;;;;;;;0.10;0.10;;;;;;;20.64;100.00;99200.44;5095883;28;20211;-56
2023/09/29 08:51:01;;;;;;;0.10;0.10;;;;;;;21.04;100.00;99209.72;5094731;28;20187;-56
2023/09/29 08:53:50;;;;;;;0.10;0.10;;;;;;;20.96;100.00;99205.13;5095929;28;20198;-56
2023/09/29 08:56:40;;;;;;;0.10;0.10;;;;;;;21.25;100.00;99212.78;5095902;28;20295;-56
2023/09/29 08:59:28;;;;;;;0.10;0.10;;;;;;;21.17;100.00;99209.22;5080487;28;20712;-55
2023/09/29 09:02:15;;;;;;;0.10;0.10;;;;;;;22.06;100.00;99197.69;5095963;28;20194;-56
2023/09/29 09:05:02;;;;;;;0.10;0.10;;;;;;;22.75;100.00;99209.69;5094597;28;20191;-56
2023/09/29 09:07:49;;;;;;;0.10;0.10;;;;;;;22.94;100.00;99200.34;5080491;28;20252;-56
2023/09/29 09:10:37;;;;;;;0.10;0.10;;;;;;;23.28;100.00;99205.41;5095748;28;20637;-56
2023/09/29 09:13:26;;;;;;;0.10;0.10;;;;;;;23.05;100.00;99198.09;5095842;28;20188;-56
2023/09/29 09:16:14;;;;;;;0.10;0.10;;;;;;;22.57;100.00;99189.16;5095682;28;20242;-56
2023/09/29 09:19:09;;;;;;;0.10;0.10;;;;;;;22.04;100.00;99184.38;5095450;28;20203;-56
2023/09/29 09:21:56;;;;;;;0.00;0.00;;;;;;;22.27;100.00;99188.06;5095288;28;20249;-56
2023/09/29 09:24:43;;;;;;;0.10;0.10;;;;;;;22.50;100.00;99199.00;5095588;28;20190;-56
2023/09/29 09:27:38;;;;;;;0.10;0.10;;;;;;;22.80;100.00;99191.13;5095390;28;20665;-56
2023/09/29 09:30:26;;;;;;;0.10;0.10;;;;;;;23.20;100.00;99181.97;5095396;28;20203;-56
2023/09/29 09:33:22;;;;;;;0.10;0.10;;;;;;;22.93;100.00;99183.31;5095478;28;20195;-55
2023/09/29 09:36:10;;;;;;;0.10;0.10;;;;;;;22.53;100.00;99189.69;5093713;28;20265;-56
2023/09/29 09:39:03;;;;;;;0.10;0.10;;;;;;;22.85;100.00;99192.28;5074652;28;20674;-56
2023/09/29 09:41:52;;;;;;;0.10;0.10;;;;;;;22.84;100.00;99190.59;5074966;28;20235;-56
2023/09/29 09:44:40;;;;;;;0.10;0.10;;;;;;;23.39;100.00;99180.66;5059775;28;20192;-56
2023/09/29 09:47:29;;;;;;;0.10;0.10;;;;;;;23.36;100.00;99199.97;5074851;28;20195;-56
2023/09/29 09:50:16;;;;;;;0.10;0.10;;;;;;;23.55;100.00;99194.09;5073691;28;20280;-56
2023/09/29 09:53:04;;;;;;;0.10;0.10;;;;;;;22.95;100.00;99193.94;5074000;28;20262;-56
2023/09/29 09:55:56;;;;;;;0.10;0.10;;;;;;;23.40;100.00;99183.19;5074581;28;20235;-56
2023/09/29 09:58:47;;;;;;;0.10;0.10;;;;;;;24.13;100.00;99180.94;5074641;28;20272;-56
2023/09/29 10:01:35;;;;;;;0.10;0.10;;;;;;;26.58;100.00;99172.78;5074551;28;20204;-56
2023/09/29 10:04:28;;;;;;;0.10;0.10;;;;;;;27.56;93.09;99182.34;5073164;28;20219;-56
2023/09/29 10:07:15;;;;;;;0.10;0.10;;;;;;;24.67;100.00;99167.97;5074341;28;20203;-56
2023/09/29 10:10:04;;;;;;;0.10;0.10;;;;;;;24.23;100.00;99168.81;5074405;28;20191;-56
2023/09/29 10:12:54;;;;;;;0.10;0.10;;;;;;;24.58;100.00;99162.84;5074326;28;20681;-56
2023/09/29 10:15:42;;;;;;;0.00;0.00;;;;;;;25.15;100.00;99165.66;5074113;28;20196;-56
2023/09/29 10:18:30;;;;;;;0.10;0.10;;;;;;;25.07;100.00;99163.91;5074162;28;20201;-56
2023/09/29 10:21:18;;;;;;;0.10;0.10;;;;;;;27.13;100.00;99154.63;5072454;28;20252;-56
2023/09/29 10:24:07;;;;;;;0.05;0.05;;;;;;;28.46;87.03;99157.22;5073827;28;20196;-56
2023/09/29 10:26:54;;;;;;;0.10;0.10;;;;;;;29.95;75.48;99153.28;5073996;28;20188;-57
2023/09/29 10:29:41;;;;;;;0.00;0.00;;;;;;;30.52;68.79;99154.03;5074086;28;20195;-56
2023/09/29 10:32:33;;;;;;;0.00;0.00;;;;;;;31.17;63.94;99154.28;5073882;28;20261;-57
2023/09/29 10:35:20;;;;;;;0.00;0.00;;;;;;;29.17;73.58;99148.16;5072631;28;20196;-56
2023/09/29 10:38:12;;;;;;;0.10;0.10;;;;;;;30.33;68.55;99153.16;5089160;28;20265;-56
2023/09/29 10:41:00;;;;;;;0.00;0.00;;;;;;;29.95;71.78;99144.25;5093870;28;20686;-56
2023/09/29 10:43:49;;;;;;;0.00;0.00;;;;;;;29.89;71.63;99144.09;5093987;28;20222;-57
2023/09/29 10:46:36;;;;;;;0.00;0.00;;;;;;;30.70;68.07;99150.50;5093959;28;20241;-57
2023/09/29 10:49:32;;;;;;;0.00;0.00;;;;;;;27.71;84.17;99163.97;5092586;28;20265;-56
2023/09/29 10:52:22;;;;;;;0.00;0.00;;;;;;;27.10;92.11;99156.69;5093796;28;20183;-56
2023/09/29 10:55:13;;;;;;;0.10;0.10;;;;;;;28.57;82.85;99146.69;5093704;28;20186;-57
2023/09/29 10:58:00;;;;;;;0.10;0.10;;;;;;;28.42;78.58;99144.25;5093760;28;20322;-56
2023/09/29 11:00:50;;;;;;;0.00;0.00;;;;;;;29.81;75.75;99143.53;5093411;28;20778;-56
2023/09/29 11:03:36;;;;;;;0.05;0.05;;;;;;;31.42;63.28;99140.47;5093298;28;20190;-57
2023/09/29 11:06:24;;;;;;;0.00;0.00;;;;;;;28.68;73.62;99154.22;5092342;28;20241;-56
2023/09/29 11:09:16;;;;;;;0.00;0.00;;;;;;;27.51;89.94;99152.22;5093481;28;20196;-56
2023/09/29 11:12:05;;;;;;;0.08;0.08;;;;;;;29.56;78.19;99147.09;5093354;28;20202;-56
2023/09/29 11:14:52;;;;;;;0.03;0.03;;;;;;;30.49;69.75;99140.78;5093436;28;20295;-57
2023/09/29 11:17:45;;;;;;;0.00;0.00;;;;;;;30.36;67.68;99144.50;5093509;28;20187;-57
2023/09/29 11:20:32;;;;;;;0.00;0.00;;;;;;;30.77;64.73;99135.66;5091781;28;20210;-57
2023/09/29 11:23:19;;;;;;;0.00;0.00;;;;;;;32.01;60.94;99133.22;5093441;28;20294;-57
2023/09/29 11:26:09;;;;;;;0.00;0.00;;;;;;;32.57;56.97;99119.97;5093422;28;20187;-57
2023/09/29 11:28:58;;;;;;;0.00;0.00;;;;;;;31.48;60.72;99114.06;5092989;28;20211;-57
2023/09/29 11:31:44;;;;;;;0.00;0.00;;;;;;;32.97;53.48;99106.25;5093205;28;20598;-57
2023/09/29 11:34:31;;;;;;;0.00;0.00;;;;;;;31.37;59.76;99103.94;5091845;28;20466;-57
2023/09/29 11:37:20;;;;;;;0.00;0.00;;;;;;;32.50;54.94;99098.16;5092844;28;20231;-57
2023/09/29 11:40:11;;;;;;;0.00;0.00;;;;;;;31.63;55.45;99098.00;5092764;28;20195;-56
2023/09/29 11:42:58;;;;;;;0.00;0.00;;;;;;;33.79;51.19;99092.09;5093092;28;20245;-57
2023/09/29 11:45:47;;;;;;;0.00;0.00;;;;;;;32.93;53.45;99083.16;5092838;28;20199;-56
2023/09/29 11:48:35;;;;;;;0.00;0.00;;;;;;;33.73;50.69;99076.59;5093061;28;20223;-57
2023/09/29 11:51:22;;;;;;;0.00;0.00;;;;;;;32.02;55.90;99088.28;5091661;28;20244;-57
2023/09/29 11:54:09;;;;;;;0.00;0.00;;;;;;;32.19;56.06;99093.88;5092941;28;20194;-57
2023/09/29 11:56:56;;;;;;;0.00;0.00;;;;;;;31.91;58.24;99089.13;5092994;28;20206;-57
2023/09/29 11:59:43;;;;;;;0.00;0.00;;;;;;;32.41;56.32;99088.63;5092897;28;20307;-57
2023/09/29 12:02:31;;;;;;;0.00;0.00;;;;;;;32.71;53.37;99080.19;5092901;28;20195;-57
2023/09/29 12:05:18;;;;;;;0.00;0.00;;;;;;;33.34;53.12;99097.63;5091573;28;20191;-57
2023/09/29 12:08:06;;;;;;;0.00;0.00;;;;;;;33.38;52.64;99083.16;5092896;28;20183;-57
2023/09/29 12:10:53;;;;;;;0.00;0.00;;;;;;;32.55;54.50;99089.22;5092750;28;20195;-57
2023/09/29 12:13:40;;;;;;;0.00;0.00;;;;;;;31.54;59.90;99089.28;5092872;28;20190;-57
2023/09/29 12:16:28;;;;;;;0.00;0.00;;;;;;;33.85;51.94;99102.91;5096893;28;20222;-57
2023/09/29 12:19:16;;;;;;;0.00;0.00;;;;;;;31.07;59.82;99112.94;5095548;28;20314;-57
2023/09/29 12:22:03;;;;;;;0.00;0.00;;;;;;;31.12;62.43;99121.31;5096588;28;20245;-56
2023/09/29 12:24:50;;;;;;;0.00;0.00;;;;;;;30.51;66.58;99108.59;5096792;28;20199;-56
2023/09/29 12:27:37;;;;;;;0.00;0.00;;;;;;;29.33;73.68;99120.31;5096563;28;20195;-56
2023/09/29 12:30:24;;;;;;;0.00;0.00;;;;;;;29.59;76.15;99111.16;5096556;28;20190;-56
2023/09/29 12:33:11;;;;;;;0.00;0.00;;;;;;;30.31;73.97;99113.47;5096621;28;20298;-56
2023/09/29 12:36:00;;;;;;;0.10;0.10;;;;;;;30.53;69.87;99117.41;5095196;28;20191;-56
2023/09/29 12:38:47;;;;;;;0.10;0.10;;;;;;;29.58;76.40;99114.09;5096352;28;20198;-56
2023/09/29 12:41:34;;;;;;;0.10;0.10;;;;;;;28.07;87.77;99119.97;5096136;28;20234;-56
2023/09/29 12:44:21;;;;;;;0.03;0.03;;;;;;;27.16;98.43;99121.59;5096217;28;20237;-56
2023/09/29 12:47:09;;;;;;;0.00;0.00;;;;;;;27.00;100.00;99120.03;5095643;28;20199;-56
2023/09/29 12:49:56;;;;;;;0.10;0.10;;;;;;;26.78;100.00;99120.19;5093991;28;20261;-56
2023/09/29 12:52:45;;;;;;;0.10;0.10;;;;;;;27.30;100.00;99115.09;5096030;28;20216;-56
2023/09/29 12:55:32;;;;;;;0.00;0.00;;;;;;;27.50;99.02;99112.41;5080736;28;20203;-56
2023/09/29 12:58:19;;;;;;;0.00;0.00;;;;;;;27.19;99.96;99102.97;5095955;28;20198;-56
2023/09/29 13:01:06;;;;;;;0.10;0.10;;;;;;;26.68;100.00;99111.56;5095775;28;20219;-56
2023/09/29 13:03:53;;;;;;;0.10;0.10;;;;;;;26.42;100.00;99111.44;5095888;28;20261;-56